Time;durP1;ratioP1;P1;durP2;ratioP2;P2;SDS_P1;SDS_P2;PMS_P1;PMS_P2;Temp;Humidity;BMP_temperature;BMP_pressure;BME280_temperature;BME280_humidity;BME280_pressure;Samples;Min_cycle;Max_cycle;Signal;HPM_P1;HPM_P2
2021/09/17 00:02:22;;;;;;;17.53;6.80;;;13.70;1.00;;;;;;5037501;28;20426;-77
2021/09/17 00:05:39;;;;;;;17.77;6.17;;;13.60;1.00;;;;;;5035981;28;20411;-77
2021/09/17 00:08:46;;;;;;;10.67;5.97;;;13.60;1.00;;;;;;5026862;28;20395;-77
2021/09/17 00:11:22;;;;;;;22.87;6.10;;;13.40;1.00;;;;;;5017217;28;20370;-78
2021/09/17 00:14:28;;;;;;;12.50;7.33;;;13.40;1.00;;;;;;5016763;28;20443;-78
2021/09/17 00:16:58;;;;;;;14.37;7.23;;;13.40;1.00;;;;;;5017369;28;20732;-78
2021/09/17 00:19:46;;;;;;;20.83;6.77;;;13.30;1.00;;;;;;5034443;28;20441;-77
2021/09/17 00:29:22;;;;;;;12.93;7.23;;;13.20;1.00;;;;;;5029483;28;20415;-77
2021/09/17 00:32:40;;;;;;;10.87;6.47;;;13.10;1.00;;;;;;5016346;28;20482;-78
2021/09/17 00:39:16;;;;;;;12.50;7.77;;;13.00;1.00;;;;;;5022445;28;20741;-78
2021/09/17 00:42:10;;;;;;;11.13;6.70;;;13.00;1.00;;;;;;5030138;28;20423;-77
2021/09/17 00:47:57;;;;;;;12.77;7.87;;;12.90;1.00;;;;;;5016534;28;20382;-77
2021/09/17 00:50:46;;;;;;;15.33;8.03;;;12.90;1.00;;;;;;5026275;28;20424;-77
2021/09/17 00:56:33;;;;;;;9.87;6.70;;;12.90;1.00;;;;;;5035582;28;21142;-77
2021/09/17 00:59:55;;;;;;;14.00;6.53;;;12.90;1.00;;;;;;5035365;28;20431;-77
2021/09/17 01:02:21;;;;;;;16.77;6.47;;;12.90;1.00;;;;;;5035716;28;20180;-77
2021/09/17 01:05:10;;;;;;;15.50;7.00;;;12.90;1.00;;;;;;5035208;28;20460;-77
2021/09/17 01:07:42;;;;;;;25.37;8.00;;;12.90;1.00;;;;;;5035510;28;20211;-77
2021/09/17 01:10:16;;;;;;;16.60;7.80;;;12.90;1.00;;;;;;5017791;28;20454;-77
2021/09/17 01:13:28;;;;;;;9.50;7.20;;;12.90;1.00;;;;;;5035369;28;20478;-77
2021/09/17 01:16:04;;;;;;;11.90;7.20;;;13.00;1.00;;;;;;5035697;28;20399;-77
2021/09/17 01:22:45;;;;;;;15.47;8.27;;;13.20;1.00;;;;;;5035363;28;20802;-77
2021/09/17 01:31:55;;;;;;;13.63;7.90;;;13.30;1.00;;;;;;5035242;28;20541;-78
2021/09/17 01:34:46;;;;;;;16.20;8.30;;;13.40;1.00;;;;;;5035014;28;20525;-77
2021/09/17 01:37:16;;;;;;;17.07;8.17;;;13.40;1.00;;;;;;5034651;28;20148;-77
2021/09/17 01:40:04;;;;;;;13.80;7.33;;;13.50;1.00;;;;;;5034519;28;20747;-77
2021/09/17 01:52:46;;;;;;;11.33;7.43;;;13.60;1.00;;;;;;5034518;28;20385;-78
2021/09/17 01:58:58;;;;;;;13.40;7.40;;;13.70;1.00;;;;;;5020630;28;20988;-77
2021/09/17 02:01:28;;;;;;;19.67;8.73;;;13.70;1.00;;;;;;5022314;28;20412;-77
2021/09/17 02:03:54;;;;;;;17.47;8.43;;;15.20;1.00;;;;;;5015438;28;20392;-77
2021/09/17 02:06:24;;;;;;;14.10;7.87;;;13.70;1.00;;;;;;5014883;28;20757;-77
2021/09/17 02:08:58;;;;;;;13.23;8.10;;;13.70;1.00;;;;;;5020620;28;20659;-77
2021/09/17 02:14:46;;;;;;;20.03;9.03;;;13.70;1.00;;;;;;5034139;28;20470;-77
2021/09/17 02:17:40;;;;;;;18.43;9.00;;;13.70;1.00;;;;;;5034249;28;20370;-77
2021/09/17 02:20:07;;;;;;;25.33;8.50;;;13.70;1.00;;;;;;5033423;28;20188;-77
2021/09/17 02:23:27;;;;;;;22.93;9.03;;;13.70;1.00;;;;;;5034371;28;20890;-77
2021/09/17 02:29:15;;;;;;;19.40;9.03;;;13.80;1.00;;;;;;5033254;28;20909;-78
2021/09/17 02:31:46;;;;;;;22.83;10.07;;;13.80;1.00;;;;;;5020738;28;20412;-77
2021/09/17 02:34:12;;;;;;;12.83;8.80;;;13.80;1.00;;;;;;5014339;28;20192;-78
2021/09/17 02:37:10;;;;;;;13.40;9.00;;;15.10;1.00;;;;;;5014590;28;20373;-77
2021/09/17 02:39:40;;;;;;;15.73;8.50;;;13.80;1.00;;;;;;5021417;28;20559;-77
2021/09/17 02:45:46;;;;;;;14.53;9.40;;;13.80;1.00;;;;;;5017480;28;20428;-78
2021/09/17 02:54:55;;;;;;;23.13;9.40;;;13.80;1.00;;;;;;5033100;28;20582;-78
2021/09/17 02:57:21;;;;;;;24.50;9.00;;;13.80;1.00;;;;;;5033262;28;20965;-77
2021/09/17 02:59:47;;;;;;;15.17;9.20;;;;;;;;;;5032449;28;20539;-77
2021/09/17 03:02:16;;;;;;;17.30;9.40;;;13.80;1.00;;;;;;5018128;28;20857;-77
2021/09/17 03:04:42;;;;;;;14.07;8.93;;;;;;;;;;5013930;28;20407;-78
2021/09/17 03:07:10;;;;;;;23.93;9.00;;;13.70;1.00;;;;;;5013575;28;20728;-78
2021/09/17 03:09:36;;;;;;;15.67;8.63;;;13.70;1.00;;;;;;5017846;28;20502;-78
2021/09/17 03:12:02;;;;;;;14.17;8.80;;;13.70;1.00;;;;;;5021207;28;20510;-78
2021/09/17 03:14:27;;;;;;;19.40;9.27;;;13.70;1.00;;;;;;5015303;28;20215;-78
2021/09/17 03:20:28;;;;;;;15.43;9.00;;;13.80;1.00;;;;;;5033349;28;20314;-77
2021/09/17 03:26:15;;;;;;;17.13;9.40;;;13.70;1.00;;;;;;5033516;28;20735;-78
2021/09/17 03:32:04;;;;;;;17.77;9.20;;;13.70;1.00;;;;;;5022428;28;20191;-77
2021/09/17 03:37:51;;;;;;;17.50;8.70;;;13.60;1.00;;;;;;5016923;28;20349;-77
2021/09/17 03:40:18;;;;;;;16.87;9.90;;;13.60;1.00;;;;;;5026985;28;20435;-78
2021/09/17 03:42:46;;;;;;;21.13;9.97;;;13.50;1.00;;;;;;5027744;28;20212;-77
2021/09/17 03:48:33;;;;;;;16.57;8.70;;;13.40;1.00;;;;;;5017227;28;20877;-77
2021/09/17 03:51:24;;;;;;;13.70;8.97;;;13.20;1.00;;;;;;5020267;28;20510;-78
2021/09/17 03:54:10;;;;;;;24.33;9.57;;;13.20;1.00;;;;;;5037087;28;20215;-78
2021/09/17 03:57:22;;;;;;;14.20;9.80;;;13.20;1.00;;;;;;5036961;28;20372;-78
2021/09/17 04:03:09;;;;;;;16.20;9.40;;;13.10;1.00;;;;;;5036276;28;20467;-78
2021/09/17 04:05:40;;;;;;;22.00;9.87;;;13.10;1.00;;;;;;5037342;28;20878;-78
2021/09/17 04:08:57;;;;;;;18.23;9.97;;;13.10;1.00;;;;;;5036538;28;20526;-77
2021/09/17 04:14:46;;;;;;;18.43;10.27;;;13.20;1.00;;;;;;5023712;28;20478;-78
2021/09/17 04:17:28;;;;;;;14.87;10.07;;;13.20;1.00;;;;;;5017879;28;20429;-78
2021/09/17 04:19:58;;;;;;;18.20;10.80;;;13.20;1.00;;;;;;5017311;28;20371;-77
2021/09/17 04:22:24;;;;;;;15.30;9.87;;;13.20;1.00;;;;;;5016492;28;20371;-78
2021/09/17 04:24:53;;;;;;;16.10;10.23;;;13.20;1.00;;;;;;5023438;28;20460;-77
2021/09/17 04:27:25;;;;;;;24.27;10.97;;;13.20;1.00;;;;;;5031560;28;20161;-77
2021/09/17 04:29:50;;;;;;;27.23;10.10;;;13.20;1.00;;;;;;5015793;28;20409;-77
2021/09/17 04:32:16;;;;;;;18.37;10.80;;;13.10;1.00;;;;;;5015624;28;20505;-77
2021/09/17 04:38:03;;;;;;;20.73;10.00;;;13.00;1.00;;;;;;5035590;28;20203;-77
2021/09/17 04:41:22;;;;;;;13.80;9.60;;;13.00;1.00;;;;;;5036303;28;20391;-77
2021/09/17 04:47:34;;;;;;;17.23;9.77;;;12.80;1.00;;;;;;5016091;28;20941;-77
2021/09/17 04:50:02;;;;;;;15.70;9.50;;;12.70;1.00;;;;;;5016639;28;20404;-77
2021/09/17 04:52:40;;;;;;;18.73;10.03;;;12.70;1.00;;;;;;5016523;28;20443;-77
2021/09/17 04:55:52;;;;;;;18.00;11.17;;;12.60;1.00;;;;;;5021812;28;20967;-77
2021/09/17 04:58:58;;;;;;;22.30;10.40;;;12.60;1.00;;;;;;5035772;28;20584;-77
2021/09/17 05:01:47;;;;;;;26.93;10.20;;;12.60;1.00;;;;;;5035832;28;20399;-77
2021/09/17 05:04:25;;;;;;;43.13;11.87;;;12.50;1.00;;;;;;5035726;28;20397;-77
2021/09/17 05:06:58;;;;;;;20.80;10.90;;;12.50;1.00;;;;;;5034879;28;20422;-77
2021/09/17 05:10:10;;;;;;;37.13;11.13;;;12.50;1.00;;;;;;5035460;28;20399;-77
2021/09/17 05:12:46;;;;;;;31.50;11.97;;;12.40;1.00;;;;;;5035666;28;20379;-77
2021/09/17 05:15:34;;;;;;;22.20;11.33;;;12.40;1.00;;;;;;5029116;28;20454;-77
2021/09/17 05:18:10;;;;;;;21.37;9.90;;;;;;;;;;5034821;28;20537;-77
2021/09/17 05:21:04;;;;;;;21.03;10.30;;;12.30;1.00;;;;;;5029445;28;20475;-78
2021/09/17 05:23:46;;;;;;;24.13;11.90;;;12.40;1.00;;;;;;5034400;28;20426;-77
2021/09/17 05:30:16;;;;;;;20.53;10.90;;;12.30;1.00;;;;;;5023260;28;20965;-77
2021/09/17 05:39:25;;;;;;;16.20;10.27;;;12.30;1.00;;;;;;5015045;28;20375;-78
2021/09/17 05:41:51;;;;;;;21.50;10.83;;;12.40;1.00;;;;;;5028793;28;20415;-77
2021/09/17 05:44:40;;;;;;;17.87;11.40;;;12.40;1.00;;;;;;5035115;28;20681;-77
2021/09/17 05:47:16;;;;;;;22.80;10.90;;;12.50;1.00;;;;;;5035168;28;20156;-77
2021/09/17 05:50:04;;;;;;;17.37;10.10;;;12.50;1.00;;;;;;5035453;28;20737;-81
2021/09/17 05:52:34;;;;;;;25.30;10.87;;;12.60;1.00;;;;;;5023682;28;20427;-78
2021/09/17 05:55:00;;;;;;;22.13;11.63;;;12.60;1.00;;;;;;5033956;28;20545;-78
2021/09/17 05:57:34;;;;;;;27.53;11.03;;;12.60;1.00;;;;;;5034483;28;20474;-79
2021/09/17 06:00:12;;;;;;;20.77;11.50;;;12.80;1.00;;;;;;5034421;28;20191;-79
2021/09/17 06:02:37;;;;;;;26.20;11.67;;;12.80;1.00;;;;;;5033849;28;20436;-78
2021/09/17 06:05:04;;;;;;;25.43;12.00;;;12.90;1.00;;;;;;5034736;28;20387;-78
2021/09/17 06:07:52;;;;;;;29.77;12.67;;;13.00;1.00;;;;;;5034151;28;20180;-78
2021/09/17 06:14:10;;;;;;;24.83;11.50;;;13.30;1.00;;;;;;5033320;28;20457;-78
2021/09/17 06:17:28;;;;;;;17.67;11.50;;;13.50;1.00;;;;;;5034782;28;20396;-78
2021/09/17 06:20:16;;;;;;;20.10;10.60;;;13.70;1.00;;;;;;5033477;28;20427;-77
2021/09/17 06:22:45;;;;;;;23.90;11.50;;;13.80;1.00;;;;;;5033127;28;20469;-78
2021/09/17 06:29:22;;;;;;;24.17;11.80;;;14.10;1.00;;;;;;5018483;28;20435;-77
2021/09/17 06:31:52;;;;;;;15.40;10.43;;;14.40;1.00;;;;;;5028877;28;20417;-77
2021/09/17 06:34:28;;;;;;;19.83;12.23;;;14.60;1.00;;;;;;5032967;28;20512;-78
2021/09/17 06:40:17;;;;;;;21.50;11.20;;;14.90;1.00;;;;;;5014139;28;20343;-77
2021/09/17 06:43:10;;;;;;;21.07;11.30;;;;;;;;;;5016647;28;21971;-77
2021/09/17 06:45:58;;;;;;;28.37;11.93;;;15.20;1.00;;;;;;5022562;28;20374;-78
2021/09/17 06:48:34;;;;;;;36.87;13.13;;;15.30;1.00;;;;;;5024840;28;20928;-77
2021/09/17 06:51:01;;;;;;;20.73;13.27;;;15.50;1.00;;;;;;5028743;28;20429;-77
2021/09/17 06:53:26;;;;;;;19.90;13.87;;;15.50;1.00;;;;;;5031948;28;20566;-77
2021/09/17 06:55:52;;;;;;;17.73;12.23;;;15.60;1.00;;;;;;5015301;28;20795;-77
2021/09/17 06:58:18;;;;;;;18.60;12.50;;;15.70;1.00;;;;;;5013114;28;20173;-77
2021/09/17 07:00:44;;;;;;;30.77;12.30;;;15.90;1.00;;;;;;5018641;28;20180;-77
2021/09/17 07:03:09;;;;;;;15.23;10.93;;;16.00;1.00;;;;;;5029584;28;20466;-77
2021/09/17 07:05:39;;;;;;;18.73;10.33;;;16.00;1.00;;;;;;5031008;28;20264;-77
2021/09/17 07:08:09;;;;;;;15.57;9.63;;;16.20;1.00;;;;;;5029927;28;20180;-77
2021/09/17 07:10:38;;;;;;;21.43;9.57;;;16.40;1.00;;;;;;5033453;28;20431;-78
2021/09/17 07:13:04;;;;;;;20.60;11.80;;;16.50;1.00;;;;;;5036831;28;20885;-77
2021/09/17 07:15:30;;;;;;;14.63;10.47;;;16.60;1.00;;;;;;5036826;28;20489;-77
2021/09/17 07:17:56;;;;;;;17.47;10.80;;;16.70;1.00;;;;;;5037009;28;20776;-77
2021/09/17 07:20:21;;;;;;;20.20;11.83;;;16.80;1.00;;;;;;5035753;28;20896;-77
2021/09/17 07:22:47;;;;;;;16.63;11.07;;;17.00;1.00;;;;;;5034271;28;20202;-77
2021/09/17 07:25:14;;;;;;;18.00;11.50;;;17.10;1.00;;;;;;5036548;28;20184;-77
2021/09/17 07:27:40;;;;;;;19.83;11.03;;;17.10;1.00;;;;;;5036561;28;20178;-77
2021/09/17 07:30:06;;;;;;;18.20;11.33;;;17.20;1.00;;;;;;5019470;28;20436;-77
2021/09/17 07:32:33;;;;;;;24.77;11.70;;;17.40;1.00;;;;;;5030347;28;20187;-77
2021/09/17 07:34:59;;;;;;;19.80;12.27;;;17.50;1.00;;;;;;5016636;28;20475;-77
2021/09/17 07:37:25;;;;;;;16.53;11.97;;;17.60;1.00;;;;;;5016644;28;20417;-77
2021/09/17 07:39:51;;;;;;;16.60;12.00;;;17.70;1.00;;;;;;5016452;28;20151;-77
2021/09/17 07:42:16;;;;;;;29.63;14.40;;;17.70;1.00;;;;;;5031122;28;20171;-77
2021/09/17 07:44:42;;;;;;;26.70;14.37;;;17.90;1.00;;;;;;5036466;28;20221;-77
2021/09/17 07:47:08;;;;;;;21.27;14.00;;;17.90;1.00;;;;;;5035975;28;20475;-77
2021/09/17 07:49:34;;;;;;;21.00;13.53;;;18.00;1.00;;;;;;5035464;28;20206;-77
2021/09/17 07:52:00;;;;;;;22.17;14.57;;;18.00;1.00;;;;;;5035750;28;20435;-77
2021/09/17 07:54:27;;;;;;;24.83;14.00;;;18.20;1.00;;;;;;5036088;28;20195;-77
2021/09/17 07:56:54;;;;;;;24.30;14.50;;;18.30;1.00;;;;;;5035960;28;20422;-77
2021/09/17 07:59:20;;;;;;;23.53;15.60;;;18.50;1.00;;;;;;5031573;28;20906;-77
2021/09/17 08:01:46;;;;;;;22.40;12.33;;;18.60;1.00;;;;;;5033144;28;20507;-77
2021/09/17 08:04:12;;;;;;;26.63;13.80;;;18.80;1.00;;;;;;5035667;28;20384;-77
2021/09/17 08:06:37;;;;;;;25.83;14.00;;;18.90;1.00;;;;;;5036091;28;20563;-77
2021/09/17 08:09:03;;;;;;;28.30;13.30;;;18.90;1.00;;;;;;5035631;28;20875;-77
2021/09/17 08:11:29;;;;;;;22.80;13.77;;;19.00;1.00;;;;;;5033910;28;20183;-77
2021/09/17 08:13:55;;;;;;;31.20;14.30;;;19.00;1.00;;;;;;5035731;28;20975;-77
2021/09/17 08:16:20;;;;;;;16.90;11.33;;;19.30;1.00;;;;;;5034247;28;20179;-77
2021/09/17 08:18:46;;;;;;;27.83;14.67;;;19.40;1.00;;;;;;5033912;28;20175;-77
2021/09/17 08:21:13;;;;;;;19.20;11.97;;;19.60;1.00;;;;;;5034970;28;20161;-77
2021/09/17 08:23:39;;;;;;;21.80;13.23;;;19.70;1.00;;;;;;5035542;28;20167;-76
2021/09/17 08:26:06;;;;;;;19.70;11.23;;;19.80;1.00;;;;;;5035484;28;20398;-76
2021/09/17 08:28:32;;;;;;;27.77;11.40;;;19.90;1.00;;;;;;5032849;28;20184;-84
2021/09/17 08:31:00;;;;;;;23.53;12.67;;;;;;;;;;5027996;28;20427;-84
2021/09/17 08:33:26;;;;;;;22.20;11.90;;;;;;;;;;5031507;28;20213;-84
2021/09/17 08:35:52;;;;;;;17.30;11.70;;;;;;;;;;5029734;28;20435;-84
2021/09/17 08:38:18;;;;;;;19.90;12.40;;;20.10;1.00;;;;;;5030949;28;20505;-83
2021/09/17 08:40:44;;;;;;;22.53;11.83;;;;;;;;;;5035801;28;20476;-84
2021/09/17 08:43:10;;;;;;;20.00;12.60;;;;;;;;;;5033231;28;20434;-84
2021/09/17 08:45:36;;;;;;;15.10;11.07;;;20.20;1.00;;;;;;5034586;28;20412;-84
2021/09/17 08:48:02;;;;;;;17.07;10.93;;;20.20;1.00;;;;;;5033753;28;20440;-84
2021/09/17 08:50:29;;;;;;;25.50;12.23;;;;;;;;;;5021327;28;20429;-84
2021/09/17 08:52:54;;;;;;;17.03;10.43;;;20.20;1.00;;;;;;5023822;28;20928;-84
2021/09/17 08:55:20;;;;;;;16.00;10.90;;;20.50;1.00;;;;;;5017146;28;20503;-84
2021/09/17 08:57:47;;;;;;;15.20;10.43;;;20.50;1.00;;;;;;5014616;28;20163;-84
2021/09/17 09:00:31;;;;;;;16.57;10.97;;;20.90;1.00;;;;;;5023743;28;20629;-84
2021/09/17 09:02:58;;;;;;;16.03;9.50;;;21.00;1.00;;;;;;5034744;28;20447;-83
2021/09/17 09:05:35;;;;;;;13.73;9.97;;;21.30;1.00;;;;;;5035312;28;20407;-84
2021/09/17 09:08:02;;;;;;;19.70;9.80;;;;;;;;;;5035308;28;20401;-79
2021/09/17 09:10:28;;;;;;;21.03;10.63;;;21.40;1.00;;;;;;5033866;28;20428;-79
2021/09/17 09:13:22;;;;;;;17.80;10.70;;;21.60;1.00;;;;;;5030467;28;20452;-78
2021/09/17 09:15:47;;;;;;;26.70;11.47;;;21.60;1.00;;;;;;5019566;28;20485;-78
2021/09/17 09:18:14;;;;;;;12.63;9.40;;;21.60;1.00;;;;;;5024101;28;20426;-79
2021/09/17 09:20:41;;;;;;;23.23;10.23;;;21.70;1.00;;;;;;5015249;28;20235;-78
2021/09/17 09:23:24;;;;;;;26.03;9.47;;;21.70;1.00;;;;;;5033633;28;20421;-79
2021/09/17 09:26:08;;;;;;;20.40;10.37;;;21.80;1.00;;;;;;5029354;28;20430;-78
2021/09/17 09:28:37;;;;;;;23.63;9.77;;;21.70;1.00;;;;;;5013756;28;20485;-79
2021/09/17 09:31:13;;;;;;;18.40;10.40;;;21.70;1.00;;;;;;5027193;28;20526;-78
2021/09/17 09:33:41;;;;;;;17.57;10.57;;;21.70;1.00;;;;;;5030780;28;20467;-78
2021/09/17 09:36:13;;;;;;;23.30;11.10;;;21.70;1.00;;;;;;5033078;28;20435;-78
2021/09/17 09:38:52;;;;;;;14.70;9.87;;;21.70;1.00;;;;;;5034208;28;20422;-78
2021/09/17 09:41:23;;;;;;;17.40;10.30;;;21.70;1.00;;;;;;5030545;28;20425;-78
2021/09/17 09:44:16;;;;;;;22.30;9.50;;;21.70;1.00;;;;;;5026652;28;20454;-78
2021/09/17 09:46:45;;;;;;;17.17;8.97;;;21.80;1.00;;;;;;5026536;28;20419;-78
2021/09/17 09:49:14;;;;;;;11.70;7.03;;;21.90;1.00;;;;;;5033802;28;20407;-78
2021/09/17 09:51:42;;;;;;;14.53;9.00;;;22.10;1.00;;;;;;5027883;28;20415;-78
2021/09/17 09:54:09;;;;;;;33.37;9.90;;;22.20;1.00;;;;;;5033750;28;20455;-78
2021/09/17 09:56:36;;;;;;;22.73;10.23;;;22.40;1.00;;;;;;5027666;28;20524;-78
2021/09/17 09:59:04;;;;;;;20.20;10.43;;;22.40;1.00;;;;;;5032063;28;20419;-78
2021/09/17 10:01:34;;;;;;;16.63;8.60;;;22.40;1.00;;;;;;5032606;28;20505;-78
2021/09/17 10:04:01;;;;;;;14.33;8.63;;;22.50;1.00;;;;;;5033458;28;20406;-78
2021/09/17 10:06:28;;;;;;;21.23;8.77;;;22.60;1.00;;;;;;5033360;28;20778;-78
2021/09/17 10:08:54;;;;;;;13.97;8.40;;;22.70;1.00;;;;;;5033087;28;20437;-77
2021/09/17 10:11:23;;;;;;;15.57;9.07;;;22.80;1.00;;;;;;5033223;28;20453;-77
2021/09/17 10:13:51;;;;;;;20.30;10.20;;;22.90;1.00;;;;;;5020162;28;20238;-77
2021/09/17 10:16:17;;;;;;;10.53;7.57;;;22.90;1.00;;;;;;5027576;28;20415;-77
2021/09/17 10:18:44;;;;;;;17.10;7.57;;;22.90;1.00;;;;;;5016246;28;20408;-77
2021/09/17 10:21:13;;;;;;;14.03;8.63;;;23.00;1.00;;;;;;5013544;28;20464;-77
2021/09/17 10:23:43;;;;;;;12.10;8.27;;;23.00;1.00;;;;;;5014032;28;20392;-77
2021/09/17 10:26:12;;;;;;;16.43;9.20;;;23.10;1.00;;;;;;5019548;28;20444;-77
2021/09/17 10:29:06;;;;;;;20.50;8.67;;;23.10;1.00;;;;;;5032669;28;20429;-77
2021/09/17 10:31:43;;;;;;;12.00;8.40;;;23.00;1.00;;;;;;5032559;28;20412;-76
2021/09/17 10:34:32;;;;;;;11.37;7.87;;;22.90;1.00;;;;;;5032143;28;20508;-77
2021/09/17 10:36:59;;;;;;;10.27;8.37;;;22.90;1.00;;;;;;5032117;28;20442;-77
2021/09/17 10:39:25;;;;;;;14.30;7.97;;;22.80;1.00;;;;;;5032086;28;20496;-77
2021/09/17 10:42:15;;;;;;;13.97;8.10;;;22.80;1.00;;;;;;5031658;28;20778;-77
2021/09/17 10:45:02;;;;;;;14.13;7.53;;;23.30;1.00;;;;;;5033026;28;20394;-78
2021/09/17 10:47:40;;;;;;;11.30;7.07;;;23.50;1.00;;;;;;5030991;28;20443;-76
2021/09/17 10:50:11;;;;;;;10.60;6.47;;;23.50;1.00;;;;;;5032268;28;20415;-76
2021/09/17 10:52:45;;;;;;;9.17;7.00;;;23.50;1.00;;;;;;5031175;28;20786;-77
2021/09/17 10:55:45;;;;;;;11.27;6.50;;;23.40;1.00;;;;;;5033122;28;20457;-78
2021/09/17 10:58:21;;;;;;;11.77;5.80;;;23.50;1.00;;;;;;5032645;28;20509;-79
2021/09/17 11:00:51;;;;;;;9.77;5.37;;;23.60;1.00;;;;;;5031972;28;20438;-79
2021/09/17 11:03:38;;;;;;;10.83;5.70;;;23.70;1.00;;;;;;5031626;28;20441;-79
2021/09/17 11:06:20;;;;;;;10.20;6.27;;;23.80;1.00;;;;;;5013410;28;20441;-79
2021/09/17 11:08:50;;;;;;;9.90;6.40;;;23.90;1.00;;;;;;5012199;28;20438;-77
2021/09/17 11:11:29;;;;;;;14.57;5.87;;;23.80;1.00;;;;;;5012960;28;20510;-77
2021/09/17 11:13:57;;;;;;;9.10;5.20;;;23.90;1.00;;;;;;5016053;28;20456;-76
2021/09/17 11:16:26;;;;;;;9.77;5.43;;;23.80;1.00;;;;;;5017392;28;20424;-76
2021/09/17 11:19:02;;;;;;;7.73;5.00;;;23.80;1.00;;;;;;5023491;28;20481;-76
2021/09/17 11:21:29;;;;;;;7.30;4.80;;;23.90;1.00;;;;;;5019800;28;20445;-76
2021/09/17 11:24:00;;;;;;;6.67;5.50;;;23.90;1.00;;;;;;5030863;28;21003;-78
2021/09/17 11:26:34;;;;;;;5.70;4.50;;;23.90;1.00;;;;;;5031084;28;20430;-79
2021/09/17 11:29:34;;;;;;;10.67;5.17;;;23.90;1.00;;;;;;5026398;28;20916;-78
2021/09/17 11:32:26;;;;;;;10.60;6.23;;;23.90;1.00;;;;;;5022407;28;20803;-78
2021/09/17 11:35:12;;;;;;;10.00;6.00;;;23.90;1.00;;;;;;5030561;28;20558;-77
2021/09/17 11:38:22;;;;;;;7.27;5.03;;;23.80;1.00;;;;;;5032903;28;20765;-78
2021/09/17 11:41:04;;;;;;;8.07;5.43;;;23.70;1.00;;;;;;5032346;28;20414;-79
2021/09/17 11:43:53;;;;;;;10.23;5.80;;;23.70;1.00;;;;;;5033354;28;20395;-76
2021/09/17 11:46:26;;;;;;;6.30;4.80;;;23.60;1.00;;;;;;5033318;28;20449;-76
2021/09/17 11:48:59;;;;;;;6.73;4.23;;;23.50;1.00;;;;;;5033282;28;20448;-76
2021/09/17 11:51:25;;;;;;;4.97;3.50;;;23.40;1.00;;;;;;5032709;28;20448;-76
2021/09/17 11:53:51;;;;;;;14.33;3.80;;;23.40;1.00;;;;;;5020668;28;20464;-77
2021/09/17 11:56:16;;;;;;;8.10;3.83;;;23.40;1.00;;;;;;5035182;28;20409;-76
2021/09/17 11:58:44;;;;;;;8.93;4.10;;;23.30;1.00;;;;;;5016246;28;20163;-76
2021/09/17 12:01:22;;;;;;;6.00;4.17;;;23.30;1.00;;;;;;5015916;28;20194;-76
2021/09/17 12:03:52;;;;;;;5.80;3.53;;;23.30;1.00;;;;;;5017663;28;20397;-77
2021/09/17 12:06:19;;;;;;;8.70;4.70;;;23.30;1.00;;;;;;5035097;28;20501;-75
2021/09/17 12:08:45;;;;;;;3.93;3.53;;;23.20;1.00;;;;;;5037092;28;20425;-75
2021/09/17 12:11:20;;;;;;;6.50;3.73;;;23.30;1.00;;;;;;5036370;28;20431;-76
2021/09/17 12:13:56;;;;;;;4.13;2.87;;;23.30;1.00;;;;;;5036519;28;20467;-76
2021/09/17 12:16:22;;;;;;;5.63;3.30;;;23.40;1.00;;;;;;5036856;28;20401;-76
2021/09/17 12:19:10;;;;;;;4.50;3.63;;;23.50;1.00;;;;;;5036036;28;20444;-75
2021/09/17 12:21:36;;;;;;;9.10;3.20;;;23.60;1.00;;;;;;5036603;28;20163;-75
2021/09/17 12:24:16;;;;;;;4.73;3.20;;;23.60;1.00;;;;;;5036924;28;20389;-76
2021/09/17 12:27:02;;;;;;;7.43;3.47;;;23.60;1.00;;;;;;5035909;28;20166;-76
2021/09/17 12:29:27;;;;;;;4.17;3.03;;;23.70;1.00;;;;;;5035839;28;20424;-76
2021/09/17 12:32:13;;;;;;;5.20;3.40;;;23.90;1.00;;;;;;5027620;28;20418;-76
2021/09/17 12:34:39;;;;;;;3.70;3.30;;;23.90;1.00;;;;;;5027129;28;20189;-76
2021/09/17 12:37:14;;;;;;;4.73;3.33;;;;;;;;;;5035388;28;20463;-76
2021/09/17 12:39:40;;;;;;;5.70;3.40;;;24.00;1.00;;;;;;5016728;28;20167;-76
2021/09/17 12:42:22;;;;;;;8.57;3.87;;;24.20;1.00;;;;;;5015531;28;20395;-76
2021/09/17 12:45:02;;;;;;;3.80;3.10;;;24.20;1.00;;;;;;5016740;28;20420;-76
2021/09/17 12:47:29;;;;;;;3.60;2.70;;;24.20;1.00;;;;;;5034870;28;20427;-75
2021/09/17 12:50:16;;;;;;;3.77;2.93;;;24.30;1.00;;;;;;5034766;28;20415;-76
2021/09/17 12:52:47;;;;;;;5.43;3.00;;;24.30;1.00;;;;;;5030712;28;20533;-75
2021/09/17 12:55:20;;;;;;;4.03;2.97;;;24.40;1.00;;;;;;5029562;28;20472;-75
2021/09/17 12:57:59;;;;;;;3.27;3.00;;;24.50;1.00;;;;;;5018711;28;20414;-75
2021/09/17 13:00:26;;;;;;;5.33;3.07;;;24.70;1.00;;;;;;5022420;28;20964;-77
2021/09/17 13:02:53;;;;;;;4.03;2.80;;;24.80;1.00;;;;;;5035974;28;20399;-77
2021/09/17 13:05:22;;;;;;;4.90;3.30;;;25.00;1.00;;;;;;5035817;28;20479;-76
2021/09/17 13:07:48;;;;;;;7.63;3.57;;;24.90;1.00;;;;;;5035751;28;20825;-76
2021/09/17 13:10:14;;;;;;;4.90;3.77;;;25.10;1.00;;;;;;5035419;28;20448;-78
2021/09/17 13:13:28;;;;;;;5.90;4.00;;;25.10;1.00;;;;;;5032433;28;20635;-77
2021/09/17 13:16:04;;;;;;;8.80;3.37;;;25.00;1.00;;;;;;5016059;28;20395;-78
2021/09/17 13:18:34;;;;;;;3.00;2.70;;;25.10;1.00;;;;;;5015683;28;20394;-77
2021/09/17 13:21:22;;;;;;;6.60;3.73;;;25.30;1.00;;;;;;5026019;28;20416;-77
2021/09/17 13:23:58;;;;;;;4.60;2.90;;;25.40;1.00;;;;;;5034907;28;20553;-77
2021/09/17 13:26:34;;;;;;;2.83;2.63;;;25.50;1.00;;;;;;5035698;28;20480;-77
2021/09/17 13:29:34;;;;;;;3.50;3.00;;;25.60;1.00;;;;;;5035099;28;20389;-78
2021/09/17 13:32:24;;;;;;;5.60;3.33;;;25.80;1.00;;;;;;5026377;28;20430;-78
2021/09/17 13:35:34;;;;;;;4.10;3.40;;;25.80;1.00;;;;;;5025097;28;20461;-78
2021/09/17 13:38:22;;;;;;;3.17;2.70;;;26.00;1.00;;;;;;5034800;28;20483;-78
2021/09/17 13:40:58;;;;;;;3.37;3.00;;;26.00;1.00;;;;;;5025864;28;20418;-79
2021/09/17 13:43:35;;;;;;;12.70;3.67;;;26.00;1.00;;;;;;5034789;28;20860;-79
2021/09/17 13:46:01;;;;;;;2.73;2.53;;;25.80;1.00;;;;;;5034826;28;20424;-79
2021/09/17 13:52:22;;;;;;;2.30;2.10;;;25.10;1.00;;;;;;5034247;28;20553;-78
2021/09/17 13:54:52;;;;;;;2.60;2.40;;;24.90;1.00;;;;;;5034732;28;20909;-78
2021/09/17 13:57:22;;;;;;;5.57;3.00;;;24.80;1.00;;;;;;5034778;28;20456;-76
2021/09/17 13:59:52;;;;;;;5.20;2.90;;;24.40;1.00;;;;;;5027081;28;20459;-76
2021/09/17 14:02:23;;;;;;;3.30;2.70;;;24.40;1.00;;;;;;5030651;28;20522;-75
2021/09/17 14:04:48;;;;;;;2.23;2.03;;;24.50;1.00;;;;;;5027293;28;20512;-75
2021/09/17 14:07:16;;;;;;;2.10;2.00;;;24.70;1.00;;;;;;5014556;28;20469;-74
2021/09/17 14:09:42;;;;;;;7.40;2.00;;;24.90;1.00;;;;;;5014545;28;20645;-76
2021/09/17 14:12:13;;;;;;;7.83;2.13;;;24.80;1.00;;;;;;5017818;28;20415;-77
2021/09/17 14:14:39;;;;;;;1.97;1.80;;;25.10;1.00;;;;;;5014829;28;20190;-77
2021/09/17 14:17:05;;;;;;;6.53;2.30;;;25.30;1.00;;;;;;5013969;28;20751;-77
2021/09/17 14:19:40;;;;;;;2.90;1.80;;;25.40;1.00;;;;;;5021549;28;20513;-77
2021/09/17 14:22:10;;;;;;;2.27;1.87;;;25.40;1.00;;;;;;5033642;28;20918;-78
2021/09/17 14:24:52;;;;;;;1.80;1.70;;;25.30;1.00;;;;;;5034320;28;20739;-78
2021/09/17 14:27:23;;;;;;;1.50;1.40;;;25.10;1.00;;;;;;5034997;28;20395;-75
2021/09/17 14:29:58;;;;;;;2.83;1.50;;;25.00;1.00;;;;;;5034694;28;20871;-78
2021/09/17 14:32:35;;;;;;;4.03;1.33;;;25.00;1.00;;;;;;5027157;28;20439;-77
2021/09/17 14:35:34;;;;;;;1.03;1.03;;;24.80;1.00;;;;;;5016630;28;20476;-78
2021/09/17 14:38:22;;;;;;;1.97;1.40;;;24.60;1.00;;;;;;5033624;28;20405;-78
2021/09/17 14:40:52;;;;;;;1.30;1.20;;;24.50;1.00;;;;;;5019377;28;20434;-79
2021/09/17 14:43:52;;;;;;;1.50;1.40;;;;;;;;;;5014049;28;20906;-79
2021/09/17 14:46:52;;;;;;;4.93;1.50;;;24.30;1.00;;;;;;5025005;28;20911;-81
2021/09/17 14:49:35;;;;;;;2.70;2.00;;;24.20;1.00;;;;;;5014205;28;20394;-80
2021/09/17 14:52:22;;;;;;;2.30;2.00;;;24.00;1.00;;;;;;5024427;28;20932;-80
2021/09/17 14:54:52;;;;;;;2.37;1.43;;;23.90;1.00;;;;;;5033514;28;20448;-80
2021/09/17 14:57:23;;;;;;;1.53;1.43;;;23.80;1.00;;;;;;5031267;28;20962;-77
2021/09/17 15:00:06;;;;;;;3.40;2.10;;;23.70;1.00;;;;;;5012523;28;20476;-78
2021/09/17 15:03:04;;;;;;;1.63;1.53;;;23.60;1.00;;;;;;5015914;28;20410;-77
2021/09/17 15:06:04;;;;;;;1.70;1.60;;;23.50;1.00;;;;;;5013549;28;20923;-78
2021/09/17 15:08:52;;;;;;;5.73;2.30;;;23.40;1.00;;;;;;5013505;28;20422;-78
2021/09/17 15:11:34;;;;;;;2.83;1.83;;;23.40;1.00;;;;;;5016291;28;20424;-78
2021/09/17 15:14:04;;;;;;;3.70;1.60;;;23.30;1.00;;;;;;5033300;28;20530;-78
2021/09/17 15:16:35;;;;;;;3.63;2.13;;;23.20;1.00;;;;;;5023472;28;20425;-78
2021/09/17 15:19:00;;;;;;;2.73;2.10;;;23.20;1.00;;;;;;5025508;28;20493;-78
2021/09/17 15:21:29;;;;;;;1.93;1.83;;;23.10;1.00;;;;;;5032611;28;20552;-77
2021/09/17 15:24:05;;;;;;;3.43;1.97;;;23.00;1.00;;;;;;5033348;28;20689;-77
2021/09/17 15:26:34;;;;;;;1.80;1.70;;;23.00;1.00;;;;;;5032811;28;20921;-79
2021/09/17 15:29:05;;;;;;;1.83;1.60;;;23.00;1.00;;;;;;5022310;28;20911;-79